sensor_id;sensor_type;location;lat;lon;timestamp;P1;durP1;ratioP1;P2;durP2;ratioP2
70761;SDS011;58360;0.000;0.000;2023-04-06T00:01:45;29.90;;;14.93;;
70761;SDS011;58360;0.000;0.000;2023-04-06T00:04:12;30.42;;;17.17;;
70761;SDS011;58360;0.000;0.000;2023-04-06T00:06:37;28.67;;;16.05;;
70761;SDS011;58360;0.000;0.000;2023-04-06T00:09:03;28.80;;;17.15;;
70761;SDS011;58360;0.000;0.000;2023-04-06T00:11:29;29.17;;;16.17;;
70761;SDS011;58360;0.000;0.000;2023-04-06T00:13:55;27.00;;;15.95;;
70761;SDS011;58360;0.000;0.000;2023-04-06T00:16:20;27.27;;;15.88;;
70761;SDS011;58360;0.000;0.000;2023-04-06T00:18:46;30.30;;;16.48;;
70761;SDS011;58360;0.000;0.000;2023-04-06T00:21:12;29.90;;;15.90;;
70761;SDS011;58360;0.000;0.000;2023-04-06T00:23:39;29.17;;;15.30;;
70761;SDS011;58360;0.000;0.000;2023-04-06T00:26:05;28.85;;;14.65;;
70761;SDS011;58360;0.000;0.000;2023-04-06T00:28:31;24.92;;;15.20;;
70761;SDS011;58360;0.000;0.000;2023-04-06T00:30:57;33.25;;;14.95;;
70761;SDS011;58360;0.000;0.000;2023-04-06T00:33:23;30.20;;;14.90;;
70761;SDS011;58360;0.000;0.000;2023-04-06T00:35:49;29.13;;;15.60;;
70761;SDS011;58360;0.000;0.000;2023-04-06T00:38:14;26.65;;;14.85;;
70761;SDS011;58360;0.000;0.000;2023-04-06T00:40:40;33.67;;;15.63;;
70761;SDS011;58360;0.000;0.000;2023-04-06T00:43:07;34.95;;;14.98;;
70761;SDS011;58360;0.000;0.000;2023-04-06T00:45:34;30.10;;;15.73;;
70761;SDS011;58360;0.000;0.000;2023-04-06T00:48:00;28.40;;;15.10;;
70761;SDS011;58360;0.000;0.000;2023-04-06T00:50:26;31.95;;;15.10;;
70761;SDS011;58360;0.000;0.000;2023-04-06T00:52:53;30.00;;;14.77;;
70761;SDS011;58360;0.000;0.000;2023-04-06T00:55:19;27.80;;;14.43;;
70761;SDS011;58360;0.000;0.000;2023-04-06T00:57:45;26.20;;;14.63;;
70761;SDS011;58360;0.000;0.000;2023-04-06T01:00:11;26.92;;;14.23;;
70761;SDS011;58360;0.000;0.000;2023-04-06T01:02:37;27.58;;;15.10;;
70761;SDS011;58360;0.000;0.000;2023-04-06T01:05:03;28.15;;;14.48;;
70761;SDS011;58360;0.000;0.000;2023-04-06T01:07:30;27.23;;;14.57;;
70761;SDS011;58360;0.000;0.000;2023-04-06T01:09:55;27.20;;;14.35;;
70761;SDS011;58360;0.000;0.000;2023-04-06T01:12:21;26.08;;;13.48;;
70761;SDS011;58360;0.000;0.000;2023-04-06T01:14:47;25.67;;;14.60;;
70761;SDS011;58360;0.000;0.000;2023-04-06T01:17:13;28.65;;;14.43;;
70761;SDS011;58360;0.000;0.000;2023-04-06T01:19:39;27.58;;;14.10;;
70761;SDS011;58360;0.000;0.000;2023-04-06T01:22:13;25.48;;;14.02;;
70761;SDS011;58360;0.000;0.000;2023-04-06T01:24:40;27.58;;;13.75;;
70761;SDS011;58360;0.000;0.000;2023-04-06T01:27:05;24.40;;;13.05;;
70761;SDS011;58360;0.000;0.000;2023-04-06T01:29:31;34.10;;;15.95;;
70761;SDS011;58360;0.000;0.000;2023-04-06T01:31:57;28.65;;;14.45;;
70761;SDS011;58360;0.000;0.000;2023-04-06T01:34:23;23.65;;;12.45;;
70761;SDS011;58360;0.000;0.000;2023-04-06T01:36:48;26.10;;;13.88;;
70761;SDS011;58360;0.000;0.000;2023-04-06T01:39:14;27.98;;;13.75;;
70761;SDS011;58360;0.000;0.000;2023-04-06T01:41:40;23.23;;;14.07;;
70761;SDS011;58360;0.000;0.000;2023-04-06T01:44:06;29.65;;;13.32;;
70761;SDS011;58360;0.000;0.000;2023-04-06T01:46:31;30.67;;;13.45;;
70761;SDS011;58360;0.000;0.000;2023-04-06T01:48:57;26.63;;;13.70;;
70761;SDS011;58360;0.000;0.000;2023-04-06T01:51:23;26.88;;;13.98;;
70761;SDS011;58360;0.000;0.000;2023-04-06T01:53:50;25.65;;;13.70;;
70761;SDS011;58360;0.000;0.000;2023-04-06T01:56:15;27.65;;;14.38;;
70761;SDS011;58360;0.000;0.000;2023-04-06T01:58:41;24.40;;;14.23;;
70761;SDS011;58360;0.000;0.000;2023-04-06T02:01:07;27.15;;;13.50;;
70761;SDS011;58360;0.000;0.000;2023-04-06T02:03:32;25.88;;;13.65;;
70761;SDS011;58360;0.000;0.000;2023-04-06T02:05:58;25.40;;;13.38;;
70761;SDS011;58360;0.000;0.000;2023-04-06T02:08:24;25.05;;;13.88;;
70761;SDS011;58360;0.000;0.000;2023-04-06T02:10:50;23.08;;;12.55;;
70761;SDS011;58360;0.000;0.000;2023-04-06T02:13:15;26.75;;;13.25;;
70761;SDS011;58360;0.000;0.000;2023-04-06T02:15:41;25.20;;;13.50;;
70761;SDS011;58360;0.000;0.000;2023-04-06T02:18:07;22.58;;;13.25;;
70761;SDS011;58360;0.000;0.000;2023-04-06T02:20:32;23.38;;;12.57;;
70761;SDS011;58360;0.000;0.000;2023-04-06T02:22:58;25.63;;;13.40;;
70761;SDS011;58360;0.000;0.000;2023-04-06T02:25:25;24.83;;;13.30;;
70761;SDS011;58360;0.000;0.000;2023-04-06T02:27:51;33.15;;;13.27;;
70761;SDS011;58360;0.000;0.000;2023-04-06T02:30:17;25.63;;;13.05;;
70761;SDS011;58360;0.000;0.000;2023-04-06T02:32:42;22.58;;;13.70;;
70761;SDS011;58360;0.000;0.000;2023-04-06T02:35:08;19.75;;;12.07;;
70761;SDS011;58360;0.000;0.000;2023-04-06T02:37:34;25.70;;;11.82;;
70761;SDS011;58360;0.000;0.000;2023-04-06T02:40:00;22.73;;;12.40;;
70761;SDS011;58360;0.000;0.000;2023-04-06T02:42:25;24.17;;;13.32;;
70761;SDS011;58360;0.000;0.000;2023-04-06T02:44:51;28.45;;;12.57;;
70761;SDS011;58360;0.000;0.000;2023-04-06T02:47:17;25.95;;;13.20;;
70761;SDS011;58360;0.000;0.000;2023-04-06T02:49:42;25.10;;;12.30;;
70761;SDS011;58360;0.000;0.000;2023-04-06T02:52:08;22.45;;;12.60;;
70761;SDS011;58360;0.000;0.000;2023-04-06T02:54:33;24.02;;;12.23;;
70761;SDS011;58360;0.000;0.000;2023-04-06T02:56:59;21.92;;;11.50;;
70761;SDS011;58360;0.000;0.000;2023-04-06T02:59:25;24.00;;;12.50;;
70761;SDS011;58360;0.000;0.000;2023-04-06T03:01:51;24.17;;;11.88;;
70761;SDS011;58360;0.000;0.000;2023-04-06T03:04:17;25.38;;;11.98;;
70761;SDS011;58360;0.000;0.000;2023-04-06T03:06:42;21.63;;;11.48;;
70761;SDS011;58360;0.000;0.000;2023-04-06T03:09:08;23.33;;;12.43;;
70761;SDS011;58360;0.000;0.000;2023-04-06T03:11:34;22.90;;;12.45;;
70761;SDS011;58360;0.000;0.000;2023-04-06T03:13:59;20.98;;;11.52;;
70761;SDS011;58360;0.000;0.000;2023-04-06T03:16:25;21.42;;;12.25;;
70761;SDS011;58360;0.000;0.000;2023-04-06T03:18:51;23.75;;;12.07;;
70761;SDS011;58360;0.000;0.000;2023-04-06T03:21:16;22.05;;;12.05;;
70761;SDS011;58360;0.000;0.000;2023-04-06T03:23:44;22.77;;;12.48;;
70761;SDS011;58360;0.000;0.000;2023-04-06T03:26:10;20.17;;;11.45;;
70761;SDS011;58360;0.000;0.000;2023-04-06T03:28:36;24.55;;;12.23;;
70761;SDS011;58360;0.000;0.000;2023-04-06T03:31:01;26.42;;;12.52;;
70761;SDS011;58360;0.000;0.000;2023-04-06T03:33:27;22.33;;;11.35;;
70761;SDS011;58360;0.000;0.000;2023-04-06T03:35:53;23.67;;;11.60;;
70761;SDS011;58360;0.000;0.000;2023-04-06T03:38:19;24.40;;;12.00;;
70761;SDS011;58360;0.000;0.000;2023-04-06T03:40:45;21.00;;;11.95;;
70761;SDS011;58360;0.000;0.000;2023-04-06T03:43:11;24.98;;;12.00;;
70761;SDS011;58360;0.000;0.000;2023-04-06T03:45:37;22.20;;;12.43;;
70761;SDS011;58360;0.000;0.000;2023-04-06T03:48:03;26.42;;;12.48;;
70761;SDS011;58360;0.000;0.000;2023-04-06T03:50:28;21.77;;;11.85;;
70761;SDS011;58360;0.000;0.000;2023-04-06T03:52:54;19.17;;;11.57;;
70761;SDS011;58360;0.000;0.000;2023-04-06T03:55:20;23.75;;;11.32;;
70761;SDS011;58360;0.000;0.000;2023-04-06T03:57:46;21.83;;;11.55;;
70761;SDS011;58360;0.000;0.000;2023-04-06T04:00:11;20.85;;;11.85;;
70761;SDS011;58360;0.000;0.000;2023-04-06T04:02:38;30.10;;;11.75;;
70761;SDS011;58360;0.000;0.000;2023-04-06T04:05:04;20.77;;;11.55;;
70761;SDS011;58360;0.000;0.000;2023-04-06T04:07:30;20.75;;;11.20;;
70761;SDS011;58360;0.000;0.000;2023-04-06T04:09:56;23.60;;;11.20;;
70761;SDS011;58360;0.000;0.000;2023-04-06T04:12:21;19.88;;;11.73;;
70761;SDS011;58360;0.000;0.000;2023-04-06T04:14:47;25.70;;;12.23;;
70761;SDS011;58360;0.000;0.000;2023-04-06T04:17:13;24.95;;;11.35;;
70761;SDS011;58360;0.000;0.000;2023-04-06T04:19:39;22.42;;;11.18;;
70761;SDS011;58360;0.000;0.000;2023-04-06T04:22:05;21.85;;;11.55;;
70761;SDS011;58360;0.000;0.000;2023-04-06T04:24:31;24.38;;;11.73;;
70761;SDS011;58360;0.000;0.000;2023-04-06T04:26:58;23.75;;;12.15;;
70761;SDS011;58360;0.000;0.000;2023-04-06T04:29:25;21.45;;;11.35;;
70761;SDS011;58360;0.000;0.000;2023-04-06T04:31:51;25.40;;;11.77;;
70761;SDS011;58360;0.000;0.000;2023-04-06T04:34:17;20.85;;;10.73;;
70761;SDS011;58360;0.000;0.000;2023-04-06T04:36:45;24.25;;;12.88;;
70761;SDS011;58360;0.000;0.000;2023-04-06T04:39:11;23.83;;;12.02;;
70761;SDS011;58360;0.000;0.000;2023-04-06T04:41:37;20.77;;;12.20;;
70761;SDS011;58360;0.000;0.000;2023-04-06T04:44:03;22.50;;;12.38;;
70761;SDS011;58360;0.000;0.000;2023-04-06T04:46:28;25.75;;;11.73;;
70761;SDS011;58360;0.000;0.000;2023-04-06T04:48:54;20.80;;;11.88;;
70761;SDS011;58360;0.000;0.000;2023-04-06T04:51:20;23.17;;;11.45;;
70761;SDS011;58360;0.000;0.000;2023-04-06T04:53:46;24.02;;;12.13;;
70761;SDS011;58360;0.000;0.000;2023-04-06T04:56:11;23.20;;;12.38;;
70761;SDS011;58360;0.000;0.000;2023-04-06T04:58:37;29.75;;;11.98;;
70761;SDS011;58360;0.000;0.000;2023-04-06T05:01:03;18.85;;;10.88;;
70761;SDS011;58360;0.000;0.000;2023-04-06T05:03:28;20.05;;;11.70;;
70761;SDS011;58360;0.000;0.000;2023-04-06T05:05:54;24.02;;;12.00;;
70761;SDS011;58360;0.000;0.000;2023-04-06T05:08:20;22.67;;;12.20;;
70761;SDS011;58360;0.000;0.000;2023-04-06T05:10:46;24.63;;;11.25;;
70761;SDS011;58360;0.000;0.000;2023-04-06T05:13:13;25.38;;;12.88;;
70761;SDS011;58360;0.000;0.000;2023-04-06T05:15:39;25.55;;;11.75;;
70761;SDS011;58360;0.000;0.000;2023-04-06T05:18:06;29.05;;;12.77;;
70761;SDS011;58360;0.000;0.000;2023-04-06T05:20:34;26.27;;;12.50;;
70761;SDS011;58360;0.000;0.000;2023-04-06T05:23:00;23.33;;;12.60;;
70761;SDS011;58360;0.000;0.000;2023-04-06T05:25:26;23.30;;;11.95;;
70761;SDS011;58360;0.000;0.000;2023-04-06T05:27:52;23.58;;;11.23;;
70761;SDS011;58360;0.000;0.000;2023-04-06T05:30:18;28.15;;;12.43;;
70761;SDS011;58360;0.000;0.000;2023-04-06T05:32:44;23.90;;;12.20;;
70761;SDS011;58360;0.000;0.000;2023-04-06T05:35:10;23.58;;;11.57;;
70761;SDS011;58360;0.000;0.000;2023-04-06T05:37:37;27.45;;;12.05;;
70761;SDS011;58360;0.000;0.000;2023-04-06T05:40:03;24.27;;;11.80;;
70761;SDS011;58360;0.000;0.000;2023-04-06T05:42:39;22.20;;;11.93;;
70761;SDS011;58360;0.000;0.000;2023-04-06T05:45:06;29.77;;;12.88;;
70761;SDS011;58360;0.000;0.000;2023-04-06T05:47:32;28.38;;;13.07;;
70761;SDS011;58360;0.000;0.000;2023-04-06T05:49:58;22.45;;;12.52;;
70761;SDS011;58360;0.000;0.000;2023-04-06T05:52:23;23.38;;;12.50;;
70761;SDS011;58360;0.000;0.000;2023-04-06T05:54:49;28.30;;;12.82;;
70761;SDS011;58360;0.000;0.000;2023-04-06T05:57:15;29.23;;;12.95;;
70761;SDS011;58360;0.000;0.000;2023-04-06T05:59:44;29.83;;;12.65;;
70761;SDS011;58360;0.000;0.000;2023-04-06T06:02:09;30.83;;;13.75;;
70761;SDS011;58360;0.000;0.000;2023-04-06T06:04:35;22.88;;;12.60;;
70761;SDS011;58360;0.000;0.000;2023-04-06T06:07:01;27.92;;;12.65;;
70761;SDS011;58360;0.000;0.000;2023-04-06T06:09:26;21.63;;;11.73;;
70761;SDS011;58360;0.000;0.000;2023-04-06T06:11:52;27.27;;;11.90;;
70761;SDS011;58360;0.000;0.000;2023-04-06T06:14:18;25.58;;;12.65;;
70761;SDS011;58360;0.000;0.000;2023-04-06T06:16:43;23.17;;;13.20;;
70761;SDS011;58360;0.000;0.000;2023-04-06T06:19:09;27.77;;;13.98;;
70761;SDS011;58360;0.000;0.000;2023-04-06T06:21:35;27.38;;;12.38;;
70761;SDS011;58360;0.000;0.000;2023-04-06T06:24:01;23.05;;;12.10;;
70761;SDS011;58360;0.000;0.000;2023-04-06T06:26:27;30.70;;;12.82;;
70761;SDS011;58360;0.000;0.000;2023-04-06T06:28:52;27.52;;;12.25;;
70761;SDS011;58360;0.000;0.000;2023-04-06T06:31:18;30.17;;;13.40;;
70761;SDS011;58360;0.000;0.000;2023-04-06T06:33:47;23.10;;;12.30;;
70761;SDS011;58360;0.000;0.000;2023-04-06T06:36:19;30.25;;;13.00;;
70761;SDS011;58360;0.000;0.000;2023-04-06T06:38:45;22.85;;;13.73;;
70761;SDS011;58360;0.000;0.000;2023-04-06T06:41:11;24.52;;;12.27;;
70761;SDS011;58360;0.000;0.000;2023-04-06T06:43:36;20.98;;;12.48;;
70761;SDS011;58360;0.000;0.000;2023-04-06T06:46:02;25.23;;;12.88;;
70761;SDS011;58360;0.000;0.000;2023-04-06T06:48:28;20.52;;;11.93;;
70761;SDS011;58360;0.000;0.000;2023-04-06T06:50:54;22.40;;;12.65;;
70761;SDS011;58360;0.000;0.000;2023-04-06T06:53:20;22.42;;;13.23;;
70761;SDS011;58360;0.000;0.000;2023-04-06T06:55:46;29.45;;;13.48;;
70761;SDS011;58360;0.000;0.000;2023-04-06T06:58:13;33.95;;;13.35;;
70761;SDS011;58360;0.000;0.000;2023-04-06T07:00:39;32.53;;;13.80;;
70761;SDS011;58360;0.000;0.000;2023-04-06T07:03:05;26.15;;;14.82;;
70761;SDS011;58360;0.000;0.000;2023-04-06T07:05:31;25.25;;;14.75;;
70761;SDS011;58360;0.000;0.000;2023-04-06T07:07:57;26.45;;;15.50;;
70761;SDS011;58360;0.000;0.000;2023-04-06T07:10:22;27.40;;;16.05;;
70761;SDS011;58360;0.000;0.000;2023-04-06T07:12:48;29.25;;;16.35;;
70761;SDS011;58360;0.000;0.000;2023-04-06T07:15:14;27.52;;;15.65;;
70761;SDS011;58360;0.000;0.000;2023-04-06T07:17:40;30.63;;;17.75;;
70761;SDS011;58360;0.000;0.000;2023-04-06T07:20:06;24.85;;;16.73;;
70761;SDS011;58360;0.000;0.000;2023-04-06T07:22:32;29.27;;;16.05;;
70761;SDS011;58360;0.000;0.000;2023-04-06T07:24:58;25.55;;;16.10;;
70761;SDS011;58360;0.000;0.000;2023-04-06T07:27:23;33.60;;;17.42;;
70761;SDS011;58360;0.000;0.000;2023-04-06T07:29:49;30.08;;;17.77;;
70761;SDS011;58360;0.000;0.000;2023-04-06T07:32:15;31.75;;;18.17;;
70761;SDS011;58360;0.000;0.000;2023-04-06T07:34:40;28.10;;;16.58;;
70761;SDS011;58360;0.000;0.000;2023-04-06T07:37:06;36.33;;;17.90;;
70761;SDS011;58360;0.000;0.000;2023-04-06T07:39:32;24.42;;;16.45;;
70761;SDS011;58360;0.000;0.000;2023-04-06T07:41:57;27.70;;;16.10;;
70761;SDS011;58360;0.000;0.000;2023-04-06T07:44:23;27.20;;;15.93;;
70761;SDS011;58360;0.000;0.000;2023-04-06T07:46:49;29.30;;;15.65;;
70761;SDS011;58360;0.000;0.000;2023-04-06T07:49:14;26.70;;;15.25;;
70761;SDS011;58360;0.000;0.000;2023-04-06T07:51:40;32.13;;;15.50;;
70761;SDS011;58360;0.000;0.000;2023-04-06T07:54:06;33.92;;;15.13;;
70761;SDS011;58360;0.000;0.000;2023-04-06T07:56:32;28.17;;;16.35;;
70761;SDS011;58360;0.000;0.000;2023-04-06T07:58:58;28.05;;;15.93;;
70761;SDS011;58360;0.000;0.000;2023-04-06T08:01:24;24.50;;;14.35;;
70761;SDS011;58360;0.000;0.000;2023-04-06T08:03:50;21.95;;;13.95;;
70761;SDS011;58360;0.000;0.000;2023-04-06T08:06:16;26.30;;;15.00;;
70761;SDS011;58360;0.000;0.000;2023-04-06T08:08:42;24.33;;;13.35;;
70761;SDS011;58360;0.000;0.000;2023-04-06T08:11:08;22.38;;;12.65;;
70761;SDS011;58360;0.000;0.000;2023-04-06T08:13:34;22.67;;;13.93;;
70761;SDS011;58360;0.000;0.000;2023-04-06T08:16:00;20.58;;;12.45;;
70761;SDS011;58360;0.000;0.000;2023-04-06T08:18:26;23.60;;;13.13;;
70761;SDS011;58360;0.000;0.000;2023-04-06T08:20:52;24.92;;;13.10;;
70761;SDS011;58360;0.000;0.000;2023-04-06T08:23:19;23.25;;;12.95;;
70761;SDS011;58360;0.000;0.000;2023-04-06T08:25:45;25.17;;;13.20;;
70761;SDS011;58360;0.000;0.000;2023-04-06T08:28:10;23.70;;;12.75;;
70761;SDS011;58360;0.000;0.000;2023-04-06T08:30:38;22.85;;;12.77;;
70761;SDS011;58360;0.000;0.000;2023-04-06T08:33:05;23.67;;;12.75;;
70761;SDS011;58360;0.000;0.000;2023-04-06T08:35:31;20.17;;;12.43;;
70761;SDS011;58360;0.000;0.000;2023-04-06T08:37:57;20.85;;;12.27;;
70761;SDS011;58360;0.000;0.000;2023-04-06T08:40:22;19.55;;;11.80;;
70761;SDS011;58360;0.000;0.000;2023-04-06T08:42:57;23.60;;;13.18;;
70761;SDS011;58360;0.000;0.000;2023-04-06T08:45:27;21.63;;;12.05;;
70761;SDS011;58360;0.000;0.000;2023-04-06T08:47:53;20.63;;;12.20;;
70761;SDS011;58360;0.000;0.000;2023-04-06T08:50:21;21.27;;;12.15;;
70761;SDS011;58360;0.000;0.000;2023-04-06T08:52:49;23.33;;;11.68;;
70761;SDS011;58360;0.000;0.000;2023-04-06T08:55:14;22.27;;;11.50;;
70761;SDS011;58360;0.000;0.000;2023-04-06T08:57:41;18.63;;;11.30;;
70761;SDS011;58360;0.000;0.000;2023-04-06T09:00:09;19.17;;;10.90;;
70761;SDS011;58360;0.000;0.000;2023-04-06T09:02:38;24.98;;;10.70;;
70761;SDS011;58360;0.000;0.000;2023-04-06T09:05:07;15.68;;;9.32;;
70761;SDS011;58360;0.000;0.000;2023-04-06T09:07:35;19.25;;;9.30;;
70761;SDS011;58360;0.000;0.000;2023-04-06T09:10:01;15.40;;;8.48;;
70761;SDS011;58360;0.000;0.000;2023-04-06T09:12:29;13.98;;;8.15;;
70761;SDS011;58360;0.000;0.000;2023-04-06T09:14:56;16.83;;;7.57;;
70761;SDS011;58360;0.000;0.000;2023-04-06T09:17:22;14.55;;;7.65;;
70761;SDS011;58360;0.000;0.000;2023-04-06T09:19:49;13.25;;;7.40;;
70761;SDS011;58360;0.000;0.000;2023-04-06T09:22:15;14.35;;;7.50;;
70761;SDS011;58360;0.000;0.000;2023-04-06T09:27:11;13.93;;;7.20;;
70761;SDS011;58360;0.000;0.000;2023-04-06T09:29:38;14.15;;;7.07;;
70761;SDS011;58360;0.000;0.000;2023-04-06T09:32:04;15.10;;;7.30;;
70761;SDS011;58360;0.000;0.000;2023-04-06T09:34:31;13.18;;;6.78;;
70761;SDS011;58360;0.000;0.000;2023-04-06T09:36:57;12.57;;;7.18;;
70761;SDS011;58360;0.000;0.000;2023-04-06T09:39:23;16.38;;;7.88;;
70761;SDS011;58360;0.000;0.000;2023-04-06T09:41:53;15.40;;;7.53;;
70761;SDS011;58360;0.000;0.000;2023-04-06T09:44:19;12.45;;;6.70;;
70761;SDS011;58360;0.000;0.000;2023-04-06T09:46:45;13.13;;;7.63;;
70761;SDS011;58360;0.000;0.000;2023-04-06T09:49:12;13.45;;;8.52;;
70761;SDS011;58360;0.000;0.000;2023-04-06T09:51:39;14.65;;;7.93;;
70761;SDS011;58360;0.000;0.000;2023-04-06T09:54:08;15.38;;;7.72;;
70761;SDS011;58360;0.000;0.000;2023-04-06T09:56:42;12.43;;;7.57;;
70761;SDS011;58360;0.000;0.000;2023-04-06T09:59:13;14.18;;;8.10;;
70761;SDS011;58360;0.000;0.000;2023-04-06T10:01:42;12.55;;;7.68;;
70761;SDS011;58360;0.000;0.000;2023-04-06T10:07:01;15.52;;;7.63;;
70761;SDS011;58360;0.000;0.000;2023-04-06T10:09:28;15.40;;;8.02;;
70761;SDS011;58360;0.000;0.000;2023-04-06T10:12:04;16.27;;;8.10;;
70761;SDS011;58360;0.000;0.000;2023-04-06T10:14:34;16.85;;;9.15;;
70761;SDS011;58360;0.000;0.000;2023-04-06T10:17:03;14.93;;;7.80;;
70761;SDS011;58360;0.000;0.000;2023-04-06T10:22:29;14.43;;;8.80;;
70761;SDS011;58360;0.000;0.000;2023-04-06T10:25:01;17.80;;;8.88;;
70761;SDS011;58360;0.000;0.000;2023-04-06T10:27:30;14.63;;;8.50;;
70761;SDS011;58360;0.000;0.000;2023-04-06T10:30:02;13.63;;;8.20;;
70761;SDS011;58360;0.000;0.000;2023-04-06T10:32:33;13.90;;;8.95;;
70761;SDS011;58360;0.000;0.000;2023-04-06T10:35:06;15.43;;;9.02;;
70761;SDS011;58360;0.000;0.000;2023-04-06T10:40:21;20.23;;;11.38;;
70761;SDS011;58360;0.000;0.000;2023-04-06T10:42:50;16.75;;;10.15;;
70761;SDS011;58360;0.000;0.000;2023-04-06T10:45:23;15.77;;;9.85;;
70761;SDS011;58360;0.000;0.000;2023-04-06T10:47:53;19.58;;;10.75;;
70761;SDS011;58360;0.000;0.000;2023-04-06T10:50:19;19.08;;;9.63;;
70761;SDS011;58360;0.000;0.000;2023-04-06T10:52:46;14.98;;;9.43;;
70761;SDS011;58360;0.000;0.000;2023-04-06T10:55:15;19.67;;;10.98;;
70761;SDS011;58360;0.000;0.000;2023-04-06T10:57:41;16.55;;;10.25;;
70761;SDS011;58360;0.000;0.000;2023-04-06T11:00:07;16.90;;;9.95;;
70761;SDS011;58360;0.000;0.000;2023-04-06T11:02:34;39.85;;;11.43;;
70761;SDS011;58360;0.000;0.000;2023-04-06T11:05:02;16.15;;;9.63;;
70761;SDS011;58360;0.000;0.000;2023-04-06T11:07:28;16.60;;;10.15;;
70761;SDS011;58360;0.000;0.000;2023-04-06T11:09:55;15.82;;;10.15;;
70761;SDS011;58360;0.000;0.000;2023-04-06T11:12:25;19.05;;;10.63;;
70761;SDS011;58360;0.000;0.000;2023-04-06T11:14:55;15.73;;;9.15;;
70761;SDS011;58360;0.000;0.000;2023-04-06T11:17:28;19.65;;;11.13;;
70761;SDS011;58360;0.000;0.000;2023-04-06T11:19:54;16.42;;;9.57;;
70761;SDS011;58360;0.000;0.000;2023-04-06T11:22:20;15.98;;;9.20;;
70761;SDS011;58360;0.000;0.000;2023-04-06T11:24:46;15.88;;;9.60;;
70761;SDS011;58360;0.000;0.000;2023-04-06T11:27:13;16.10;;;9.43;;
70761;SDS011;58360;0.000;0.000;2023-04-06T11:29:42;16.20;;;9.52;;
70761;SDS011;58360;0.000;0.000;2023-04-06T11:32:10;15.85;;;9.60;;
70761;SDS011;58360;0.000;0.000;2023-04-06T11:34:37;15.95;;;10.35;;
70761;SDS011;58360;0.000;0.000;2023-04-06T11:37:08;16.00;;;9.20;;
70761;SDS011;58360;0.000;0.000;2023-04-06T11:39:51;17.52;;;10.10;;
70761;SDS011;58360;0.000;0.000;2023-04-06T11:42:26;17.55;;;10.05;;
70761;SDS011;58360;0.000;0.000;2023-04-06T11:44:55;15.50;;;9.70;;
70761;SDS011;58360;0.000;0.000;2023-04-06T11:47:33;14.60;;;9.25;;
70761;SDS011;58360;0.000;0.000;2023-04-06T11:50:06;16.55;;;10.60;;
70761;SDS011;58360;0.000;0.000;2023-04-06T11:52:32;17.55;;;10.65;;
70761;SDS011;58360;0.000;0.000;2023-04-06T11:54:58;16.15;;;9.25;;
70761;SDS011;58360;0.000;0.000;2023-04-06T11:57:24;19.50;;;9.95;;
70761;SDS011;58360;0.000;0.000;2023-04-06T11:59:50;18.05;;;10.32;;
70761;SDS011;58360;0.000;0.000;2023-04-06T12:02:16;17.60;;;10.73;;
70761;SDS011;58360;0.000;0.000;2023-04-06T12:04:43;16.25;;;10.20;;
70761;SDS011;58360;0.000;0.000;2023-04-06T12:07:08;18.63;;;10.18;;
70761;SDS011;58360;0.000;0.000;2023-04-06T12:09:34;16.73;;;9.45;;
70761;SDS011;58360;0.000;0.000;2023-04-06T12:12:01;17.27;;;10.35;;
70761;SDS011;58360;0.000;0.000;2023-04-06T12:14:27;18.05;;;9.93;;
70761;SDS011;58360;0.000;0.000;2023-04-06T12:16:53;15.60;;;9.80;;
70761;SDS011;58360;0.000;0.000;2023-04-06T12:19:18;15.73;;;9.70;;
70761;SDS011;58360;0.000;0.000;2023-04-06T12:21:44;16.85;;;9.65;;
70761;SDS011;58360;0.000;0.000;2023-04-06T12:24:10;14.60;;;10.20;;
70761;SDS011;58360;0.000;0.000;2023-04-06T12:26:35;15.07;;;9.32;;
70761;SDS011;58360;0.000;0.000;2023-04-06T12:29:02;14.13;;;8.80;;
70761;SDS011;58360;0.000;0.000;2023-04-06T12:31:32;15.93;;;9.82;;
70761;SDS011;58360;0.000;0.000;2023-04-06T12:34:00;14.35;;;8.77;;
70761;SDS011;58360;0.000;0.000;2023-04-06T12:36:27;15.10;;;8.90;;
70761;SDS011;58360;0.000;0.000;2023-04-06T12:38:53;15.02;;;9.30;;
70761;SDS011;58360;0.000;0.000;2023-04-06T12:41:19;14.98;;;9.02;;
70761;SDS011;58360;0.000;0.000;2023-04-06T12:43:45;16.95;;;8.88;;
70761;SDS011;58360;0.000;0.000;2023-04-06T12:46:11;15.63;;;8.95;;
70761;SDS011;58360;0.000;0.000;2023-04-06T12:48:37;14.07;;;8.30;;
70761;SDS011;58360;0.000;0.000;2023-04-06T12:51:04;14.80;;;9.15;;
70761;SDS011;58360;0.000;0.000;2023-04-06T12:53:30;25.48;;;9.25;;
70761;SDS011;58360;0.000;0.000;2023-04-06T12:55:57;15.63;;;9.73;;
70761;SDS011;58360;0.000;0.000;2023-04-06T12:58:24;14.20;;;8.77;;
70761;SDS011;58360;0.000;0.000;2023-04-06T13:00:51;12.88;;;8.50;;
70761;SDS011;58360;0.000;0.000;2023-04-06T13:03:21;14.65;;;8.93;;
70761;SDS011;58360;0.000;0.000;2023-04-06T13:05:47;14.57;;;9.88;;
70761;SDS011;58360;0.000;0.000;2023-04-06T13:08:17;16.95;;;9.90;;
70761;SDS011;58360;0.000;0.000;2023-04-06T13:10:47;15.63;;;9.48;;
70761;SDS011;58360;0.000;0.000;2023-04-06T13:13:14;15.52;;;9.40;;
70761;SDS011;58360;0.000;0.000;2023-04-06T13:15:40;16.15;;;9.65;;
70761;SDS011;58360;0.000;0.000;2023-04-06T13:18:06;15.32;;;9.45;;
70761;SDS011;58360;0.000;0.000;2023-04-06T13:20:32;16.38;;;10.00;;
70761;SDS011;58360;0.000;0.000;2023-04-06T13:22:58;13.23;;;9.00;;
70761;SDS011;58360;0.000;0.000;2023-04-06T13:25:23;14.38;;;8.93;;
70761;SDS011;58360;0.000;0.000;2023-04-06T13:27:49;17.27;;;9.95;;
70761;SDS011;58360;0.000;0.000;2023-04-06T13:30:15;14.70;;;8.90;;
70761;SDS011;58360;0.000;0.000;2023-04-06T13:32:41;13.70;;;9.00;;
70761;SDS011;58360;0.000;0.000;2023-04-06T13:35:07;13.13;;;9.30;;
70761;SDS011;58360;0.000;0.000;2023-04-06T13:37:33;15.30;;;8.25;;
70761;SDS011;58360;0.000;0.000;2023-04-06T13:39:59;14.13;;;8.70;;
70761;SDS011;58360;0.000;0.000;2023-04-06T13:42:25;12.65;;;8.30;;
70761;SDS011;58360;0.000;0.000;2023-04-06T13:44:52;14.38;;;8.90;;
70761;SDS011;58360;0.000;0.000;2023-04-06T13:47:18;13.73;;;8.55;;
70761;SDS011;58360;0.000;0.000;2023-04-06T13:49:45;13.63;;;8.90;;
70761;SDS011;58360;0.000;0.000;2023-04-06T13:52:11;13.30;;;8.55;;
70761;SDS011;58360;0.000;0.000;2023-04-06T13:54:37;13.45;;;9.38;;
70761;SDS011;58360;0.000;0.000;2023-04-06T13:57:03;13.80;;;9.07;;
70761;SDS011;58360;0.000;0.000;2023-04-06T13:59:33;14.43;;;9.90;;
70761;SDS011;58360;0.000;0.000;2023-04-06T14:02:00;14.02;;;8.65;;
70761;SDS011;58360;0.000;0.000;2023-04-06T14:04:29;14.38;;;9.02;;
70761;SDS011;58360;0.000;0.000;2023-04-06T14:06:55;14.15;;;9.23;;
70761;SDS011;58360;0.000;0.000;2023-04-06T14:09:21;15.32;;;9.40;;
70761;SDS011;58360;0.000;0.000;2023-04-06T14:11:47;15.00;;;9.23;;
70761;SDS011;58360;0.000;0.000;2023-04-06T14:14:13;13.73;;;10.00;;
70761;SDS011;58360;0.000;0.000;2023-04-06T14:16:39;15.68;;;9.57;;
70761;SDS011;58360;0.000;0.000;2023-04-06T14:19:08;16.42;;;9.43;;
70761;SDS011;58360;0.000;0.000;2023-04-06T14:21:35;14.77;;;9.23;;
70761;SDS011;58360;0.000;0.000;2023-04-06T14:24:01;14.65;;;9.65;;
70761;SDS011;58360;0.000;0.000;2023-04-06T14:26:27;17.00;;;8.98;;
70761;SDS011;58360;0.000;0.000;2023-04-06T14:28:52;18.67;;;11.02;;
70761;SDS011;58360;0.000;0.000;2023-04-06T14:31:18;16.02;;;9.90;;
70761;SDS011;58360;0.000;0.000;2023-04-06T14:33:44;16.42;;;10.68;;
70761;SDS011;58360;0.000;0.000;2023-04-06T14:36:10;17.67;;;11.13;;
70761;SDS011;58360;0.000;0.000;2023-04-06T14:38:36;19.60;;;10.57;;
70761;SDS011;58360;0.000;0.000;2023-04-06T14:41:02;14.88;;;9.65;;
70761;SDS011;58360;0.000;0.000;2023-04-06T14:43:28;16.30;;;9.77;;
70761;SDS011;58360;0.000;0.000;2023-04-06T14:45:53;19.48;;;9.88;;